Time;durP1;ratioP1;P1;durP2;ratioP2;P2;SDS_P1;SDS_P2;PMS_P1;PMS_P2;Temp;Humidity;BMP_temperature;BMP_pressure;BME280_temperature;BME280_humidity;BME280_pressure;Samples;Min_cycle;Max_cycle;Signal;HPM_P1;HPM_P2
2021/12/06 00:00:59;;;;;;;37.15;14.93;;;;;;;5.63;76.22;101381.16;4898660;29;20044;-59
2021/12/06 00:03:37;;;;;;;40.53;15.32;;;;;;;5.67;76.25;101385.66;4892378;28;20526;-61
2021/12/06 00:06:02;;;;;;;41.42;16.35;;;;;;;5.65;76.16;101385.59;4901677;29;20044;-59
2021/12/06 00:08:28;;;;;;;38.42;15.63;;;;;;;5.66;76.28;101387.38;4898381;29;20047;-58
2021/12/06 00:10:53;;;;;;;38.08;15.77;;;;;;;5.66;76.45;101383.91;4901245;28;20478;-59
2021/12/06 00:13:22;;;;;;;37.92;15.80;;;;;;;5.69;76.11;101395.25;4900155;28;20602;-59
2021/12/06 00:15:49;;;;;;;36.63;15.20;;;;;;;5.69;76.26;101390.06;4895605;29;20517;-59
2021/12/06 00:18:15;;;;;;;40.33;16.00;;;;;;;5.68;76.30;101390.00;4898943;29;20047;-59
2021/12/06 00:20:40;;;;;;;38.85;15.32;;;;;;;5.69;76.09;101396.94;4901911;29;20789;-58
2021/12/06 00:23:06;;;;;;;36.28;15.77;;;;;;;5.68;76.33;101392.59;4902991;29;20134;-59
2021/12/06 00:25:31;;;;;;;39.00;15.88;;;;;;;5.68;75.92;101397.75;4892282;29;20519;-59
2021/12/06 00:27:56;;;;;;;40.30;15.93;;;;;;;5.71;76.10;101400.50;4898001;28;20054;-58
2021/12/06 00:30:22;;;;;;;41.65;15.70;;;;;;;5.75;76.30;101401.47;4897287;29;20051;-57
2021/12/06 00:32:47;;;;;;;40.70;16.55;;;;;;;5.76;76.09;101404.13;4898937;29;20066;-60
2021/12/06 00:35:18;;;;;;;39.78;16.48;;;;;;;5.78;75.77;101405.09;4902114;29;20150;-58
2021/12/06 00:37:54;;;;;;;37.60;15.93;;;;;;;5.80;75.86;101413.78;4897820;29;20039;-59
2021/12/06 00:40:22;;;;;;;42.03;16.35;;;;;;;5.80;76.07;101410.31;4901763;29;20214;-59
2021/12/06 00:42:47;;;;;;;37.50;15.60;;;;;;;5.82;75.82;101414.75;4901446;29;20538;-59
2021/12/06 00:45:12;;;;;;;38.42;16.25;;;;;;;5.84;75.97;101427.75;4898674;28;20087;-59
2021/12/06 00:47:38;;;;;;;37.85;16.50;;;;;;;5.78;76.08;101418.03;4893440;29;20511;-59
2021/12/06 00:50:05;;;;;;;45.08;16.90;;;;;;;5.85;75.93;101421.75;4897261;29;20576;-59
2021/12/06 00:52:31;;;;;;;41.35;16.75;;;;;;;5.83;76.05;101433.75;4897013;29;20070;-59
2021/12/06 00:54:56;;;;;;;42.28;16.75;;;;;;;5.87;76.05;101436.53;4900329;28;20949;-60
2021/12/06 00:57:22;;;;;;;46.35;17.30;;;;;;;5.93;76.03;101436.78;4891034;29;20123;-59
2021/12/06 00:59:47;;;;;;;44.63;17.80;;;;;;;5.96;75.84;101436.03;4897352;29;20397;-60
2021/12/06 01:02:14;;;;;;;42.92;17.23;;;;;;;5.99;76.05;101441.34;4902194;29;20542;-59
2021/12/06 01:04:41;;;;;;;42.58;17.70;;;;;;;5.90;76.11;101454.78;4895454;28;20048;-59
2021/12/06 01:07:07;;;;;;;42.55;18.38;;;;;;;5.87;76.19;101457.25;4898303;29;20531;-61
2021/12/06 01:09:32;;;;;;;44.05;17.75;;;;;;;5.87;76.14;101456.31;4892445;28;20401;-61
2021/12/06 01:11:58;;;;;;;40.30;17.17;;;;;;;5.85;76.32;101466.63;4896317;28;20074;-58
2021/12/06 01:14:24;;;;;;;46.67;18.40;;;;;;;5.87;76.29;101465.00;4897402;29;20119;-59
2021/12/06 01:16:52;;;;;;;39.83;17.30;;;;;;;5.92;76.03;101460.91;4890794;28;20051;-59
2021/12/06 01:19:17;;;;;;;43.97;18.20;;;;;;;5.92;76.12;101479.00;4913222;28;20074;-59
2021/12/06 01:21:50;;;;;;;46.67;17.98;;;;;;;5.98;76.01;101468.03;4906282;28;21814;-58
2021/12/06 01:24:20;;;;;;;42.53;17.42;;;;;;;6.05;75.96;101470.94;4894963;29;20573;-58
2021/12/06 01:27:11;;;;;;;44.42;18.52;;;;;;;5.95;76.18;101478.28;4904279;29;20309;-60
2021/12/06 01:32:25;;;;;;;46.30;18.90;;;;;;;6.08;75.87;101475.38;4898687;29;20491;-58
2021/12/06 01:40:21;;;;;;;46.88;18.90;;;;;;;6.02;75.85;101476.00;4902564;28;20482;-59
2021/12/06 01:42:46;;;;;;;40.65;17.77;;;;;;;6.16;75.46;101488.63;4903086;28;20048;-59
2021/12/06 01:45:12;;;;;;;43.00;18.55;;;;;;;6.14;75.56;101485.09;4902211;29;20095;-59
2021/12/06 01:47:38;;;;;;;41.03;18.23;;;;;;;6.15;75.58;101484.28;4898977;29;20496;-59
2021/12/06 01:50:18;;;;;;;40.35;17.10;;;;;;;6.24;75.40;101482.03;4895638;29;20047;-59
2021/12/06 01:52:47;;;;;;;42.65;18.25;;;;;;;6.16;75.83;101486.91;4903949;28;20027;-59
2021/12/06 01:55:17;;;;;;;42.00;18.02;;;;;;;6.19;75.62;101486.16;4904528;29;20118;-59
2021/12/06 01:57:42;;;;;;;44.45;18.35;;;;;;;6.17;75.49;101482.59;4897701;29;20094;-59
2021/12/06 02:00:21;;;;;;;44.08;18.33;;;;;;;6.14;75.75;101483.38;4905568;29;20058;-59
2021/12/06 02:02:47;;;;;;;48.90;19.40;;;;;;;6.07;75.90;101478.78;4903247;28;20040;-59
2021/12/06 02:05:12;;;;;;;44.72;18.55;;;;;;;6.11;75.76;101491.91;4904497;29;20586;-59
2021/12/06 02:07:37;;;;;;;43.13;18.77;;;;;;;6.15;75.79;101482.56;4891826;29;20758;-59
2021/12/06 02:10:06;;;;;;;48.03;19.70;;;;;;;6.16;75.58;101480.88;4903820;29;20221;-58
2021/12/06 02:12:32;;;;;;;44.72;19.75;;;;;;;6.14;75.63;101483.38;4899858;29;20047;-59
2021/12/06 02:15:05;;;;;;;43.67;18.73;;;;;;;6.17;75.61;101480.03;4900824;29;20047;-60
2021/12/06 02:17:37;;;;;;;46.95;18.65;;;;;;;6.16;75.59;101479.13;4893860;29;20035;-60
2021/12/06 02:20:08;;;;;;;49.75;19.33;;;;;;;6.17;75.86;101480.91;4901993;29;20477;-59
2021/12/06 02:22:37;;;;;;;46.55;19.20;;;;;;;6.20;75.82;101480.16;4906224;29;20043;-59
2021/12/06 02:25:05;;;;;;;45.78;19.60;;;;;;;6.23;75.72;101473.38;4901184;29;20147;-59
2021/12/06 02:27:31;;;;;;;42.45;17.88;;;;;;;6.24;75.62;101467.38;4898962;29;20051;-59
2021/12/06 02:29:59;;;;;;;45.05;18.83;;;;;;;6.23;75.33;101469.91;4900650;29;20051;-58
2021/12/06 02:32:25;;;;;;;47.35;19.30;;;;;;;6.25;75.47;101469.16;4900206;29;20499;-57
2021/12/06 02:34:54;;;;;;;48.42;19.50;;;;;;;6.28;75.31;101471.84;4902559;29;20051;-59
2021/12/06 02:37:24;;;;;;;47.67;20.08;;;;;;;6.14;75.42;101477.31;4897450;28;20193;-60
2021/12/06 02:39:51;;;;;;;47.80;20.23;;;;;;;6.20;75.12;101474.97;4905167;29;20083;-59
2021/12/06 02:42:16;;;;;;;47.83;20.55;;;;;;;6.18;74.87;101464.56;4894588;28;20587;-58
2021/12/06 02:44:45;;;;;;;43.13;19.27;;;;;;;6.17;74.82;101467.97;4902702;28;20955;-59
2021/12/06 02:47:11;;;;;;;43.88;19.20;;;;;;;6.11;74.86;101467.72;4897310;29;20134;-58
2021/12/06 02:49:36;;;;;;;48.35;19.95;;;;;;;6.15;74.61;101461.84;4890943;29;20048;-59
2021/12/06 02:52:03;;;;;;;43.35;19.00;;;;;;;6.09;74.69;101466.78;4903551;29;20569;-59
2021/12/06 02:54:29;;;;;;;43.72;18.90;;;;;;;6.04;74.59;101470.88;4897806;29;20156;-59
2021/12/06 02:57:07;;;;;;;45.95;20.38;;;;;;;5.97;74.76;101468.88;4903531;29;20062;-60
2021/12/06 02:59:34;;;;;;;43.67;19.65;;;;;;;5.96;74.58;101478.34;4893351;29;20047;-58
2021/12/06 03:02:04;;;;;;;42.83;19.27;;;;;;;5.88;74.78;101476.25;4901587;29;20156;-60
2021/12/06 03:04:30;;;;;;;44.53;18.67;;;;;;;5.74;74.70;101467.84;4898161;29;20110;-59
2021/12/06 03:06:58;;;;;;;45.47;19.98;;;;;;;5.65;74.69;101463.19;4899065;29;20052;-59
2021/12/06 03:09:25;;;;;;;43.42;18.75;;;;;;;5.55;74.56;101463.59;4890104;29;20719;-60
2021/12/06 03:11:57;;;;;;;44.65;18.65;;;;;;;5.44;74.64;101475.19;4898513;29;20042;-59
2021/12/06 03:14:26;;;;;;;45.47;20.20;;;;;;;5.39;75.09;101475.81;4902812;29;20558;-59
2021/12/06 03:16:53;;;;;;;46.75;20.25;;;;;;;5.34;75.80;101482.50;4897329;29;20046;-57
2021/12/06 03:19:19;;;;;;;46.03;19.30;;;;;;;5.31;75.52;101488.41;4895823;29;20389;-59
2021/12/06 03:21:45;;;;;;;46.10;19.52;;;;;;;5.23;75.20;101480.34;4898394;28;20043;-61
2021/12/06 03:24:10;;;;;;;43.03;18.23;;;;;;;5.18;75.15;101484.41;4898844;29;20048;-58
2021/12/06 03:26:37;;;;;;;49.45;19.35;;;;;;;5.17;75.10;101489.50;4900611;29;20134;-58
2021/12/06 03:29:04;;;;;;;44.40;19.08;;;;;;;5.10;75.28;101492.63;4904314;29;20050;-59
2021/12/06 03:31:30;;;;;;;54.80;20.60;;;;;;;5.06;75.97;101491.59;4894108;28;20047;-59
2021/12/06 03:33:56;;;;;;;45.15;19.08;;;;;;;4.98;75.42;101492.97;4902762;28;20082;-60
2021/12/06 03:36:23;;;;;;;61.05;22.02;;;;;;;5.01;76.06;101490.50;4893867;29;20063;-58
2021/12/06 03:38:49;;;;;;;64.85;23.02;;;;;;;5.08;76.24;101489.97;4903103;29;20131;-59
2021/12/06 03:41:17;;;;;;;54.22;20.52;;;;;;;5.05;76.17;101488.97;4902156;29;20427;-59
2021/12/06 03:43:43;;;;;;;49.67;20.02;;;;;;;5.00;76.48;101486.13;4891621;29;20048;-60
2021/12/06 03:46:10;;;;;;;50.58;19.52;;;;;;;4.94;75.72;101479.84;4897397;29;20047;-59
2021/12/06 03:48:36;;;;;;;44.83;18.58;;;;;;;4.84;75.29;101482.00;4899108;29;20824;-59
2021/12/06 03:51:01;;;;;;;54.53;21.00;;;;;;;4.80;75.69;101490.41;4896860;29;20385;-59
2021/12/06 03:53:28;;;;;;;43.13;18.02;;;;;;;4.76;75.95;101498.81;4891444;29;20075;-59
2021/12/06 03:55:53;;;;;;;52.42;19.67;;;;;;;4.73;75.51;101497.81;4900027;29;20078;-59
2021/12/06 03:58:19;;;;;;;48.85;18.60;;;;;;;4.62;75.83;101507.66;4898328;29;20044;-59
2021/12/06 04:00:45;;;;;;;44.03;17.58;;;;;;;4.54;76.20;101503.81;4901036;29;20062;-59
2021/12/06 04:03:11;;;;;;;40.60;16.38;;;;;;;4.52;75.79;101504.53;4901602;29;20044;-59
2021/12/06 04:05:36;;;;;;;55.80;20.15;;;;;;;4.47;75.44;101500.03;4890637;29;20703;-59
2021/12/06 04:08:02;;;;;;;45.33;17.83;;;;;;;4.46;75.96;101499.97;4901977;29;20051;-59
2021/12/06 04:10:28;;;;;;;45.15;17.15;;;;;;;4.37;75.33;101504.69;4899816;29;20456;-58
2021/12/06 04:12:58;;;;;;;47.22;17.42;;;;;;;4.29;76.25;101508.59;4895007;28;20139;-59
2021/12/06 04:15:25;;;;;;;39.88;16.63;;;;;;;4.21;75.37;101505.63;4889777;29;20134;-60
2021/12/06 04:17:50;;;;;;;45.90;18.08;;;;;;;4.18;76.38;101509.78;4897907;29;20063;-59
2021/12/06 04:20:16;;;;;;;38.20;15.73;;;;;;;4.17;75.62;101519.22;4901388;29;20468;-58
2021/12/06 04:22:42;;;;;;;44.75;16.77;;;;;;;4.14;75.72;101516.50;4901265;28;20624;-59
2021/12/06 04:25:10;;;;;;;49.13;18.25;;;;;;;4.12;75.99;101528.44;4893810;29;20065;-59
2021/12/06 04:27:35;;;;;;;45.40;17.45;;;;;;;4.12;76.43;101533.59;4888691;29;20578;-59
2021/12/06 04:30:02;;;;;;;55.33;19.05;;;;;;;4.14;76.63;101528.50;4905209;28;20039;-59
2021/12/06 04:32:29;;;;;;;46.33;17.05;;;;;;;4.17;76.37;101529.53;4895633;28;20562;-59
2021/12/06 04:34:55;;;;;;;45.83;16.63;;;;;;;4.17;76.08;101524.38;4898033;29;20043;-59
2021/12/06 04:37:20;;;;;;;57.45;20.60;;;;;;;4.17;76.33;101528.66;4894128;29;20107;-59
2021/12/06 04:39:47;;;;;;;50.63;17.95;;;;;;;4.19;76.15;101527.03;4893287;28;20059;-58
2021/12/06 04:42:12;;;;;;;54.13;18.08;;;;;;;4.13;76.44;101526.72;4901822;29;20675;-59
2021/12/06 04:44:38;;;;;;;50.17;18.52;;;;;;;4.12;76.43;101518.09;4898610;29;20113;-59
2021/12/06 04:47:04;;;;;;;48.60;18.63;;;;;;;4.01;76.67;101508.94;4900586;28;20602;-58
2021/12/06 04:49:30;;;;;;;43.83;17.00;;;;;;;3.96;76.50;101508.72;4892156;29;20051;-59
2021/12/06 04:51:57;;;;;;;45.80;17.50;;;;;;;3.88;76.30;101497.13;4912575;28;20110;-59
2021/12/06 04:54:27;;;;;;;45.05;17.50;;;;;;;3.83;76.41;101498.59;4901293;29;20058;-58
2021/12/06 04:56:58;;;;;;;46.03;17.17;;;;;;;3.75;75.83;101501.59;4901970;29;20055;-60
2021/12/06 04:59:29;;;;;;;41.25;15.98;;;;;;;3.71;76.38;101502.25;4892622;29;20083;-60
2021/12/06 05:01:57;;;;;;;44.72;16.25;;;;;;;3.68;76.28;101500.41;4899041;29;20126;-59
2021/12/06 05:04:25;;;;;;;55.15;19.73;;;;;;;3.61;76.78;101498.31;4903939;29;20123;-59
2021/12/06 05:06:55;;;;;;;44.25;17.75;;;;;;;3.58;76.40;101504.22;4903791;29;20044;-59
2021/12/06 05:09:28;;;;;;;47.80;17.35;;;;;;;3.59;75.69;101513.72;4900113;29;20624;-59
2021/12/06 05:11:54;;;;;;;45.25;17.48;;;;;;;3.61;75.98;101514.66;4901614;29;20075;-59
2021/12/06 05:14:20;;;;;;;46.63;16.88;;;;;;;3.60;75.77;101522.31;4904665;29;20646;-61
2021/12/06 05:16:46;;;;;;;39.17;15.63;;;;;;;3.57;76.59;101517.91;4907386;28;20051;-59
2021/12/06 05:19:11;;;;;;;41.60;16.05;;;;;;;3.54;76.62;101515.16;4903672;28;20055;-60
2021/12/06 05:21:37;;;;;;;38.80;15.10;;;;;;;3.58;75.74;101517.09;4896053;28;20235;-57
2021/12/06 05:24:05;;;;;;;43.78;15.60;;;;;;;3.57;75.30;101520.47;4896981;29;21339;-60
2021/12/06 05:26:30;;;;;;;43.25;16.08;;;;;;;3.59;75.69;101521.47;4904884;29;20090;-59
2021/12/06 05:28:59;;;;;;;43.40;15.38;;;;;;;3.58;76.08;101522.25;4903121;28;20486;-59
2021/12/06 05:31:26;;;;;;;41.47;16.20;;;;;;;3.56;75.62;101523.84;4896054;29;20078;-59
2021/12/06 05:33:55;;;;;;;47.00;17.17;;;;;;;3.55;75.84;101534.97;4907054;28;20079;-58
2021/12/06 05:36:21;;;;;;;44.85;16.42;;;;;;;3.52;76.01;101531.38;4897921;28;20040;-59
2021/12/06 05:38:49;;;;;;;50.10;17.55;;;;;;;3.58;76.01;101529.09;4905990;28;20526;-60
2021/12/06 05:41:14;;;;;;;60.63;18.95;;;;;;;3.64;76.89;101526.84;4899923;28;20032;-59
2021/12/06 05:43:40;;;;;;;55.72;19.40;;;;;;;3.70;76.88;101524.56;4896668;28;20333;-59
2021/12/06 05:46:05;;;;;;;53.38;19.48;;;;;;;3.84;77.18;101528.72;4908140;29;20047;-59
2021/12/06 05:48:31;;;;;;;63.28;19.38;;;;;;;3.94;76.97;101528.41;4899186;29;20579;-58
2021/12/06 05:50:56;;;;;;;127.47;29.90;;;;;;;4.18;78.86;101530.41;4903187;29;20122;-58
2021/12/06 05:53:22;;;;;;;119.75;28.27;;;;;;;4.53;78.14;101525.28;4897195;29;20090;-59
2021/12/06 05:55:48;;;;;;;127.35;29.55;;;;;;;4.67;78.65;101520.75;4897951;28;20047;-59
2021/12/06 05:58:14;;;;;;;126.35;30.45;;;;;;;4.77;78.62;101520.38;4902528;29;20094;-59
2021/12/06 06:00:42;;;;;;;126.82;29.35;;;;;;;4.91;78.41;101529.66;4903249;29;20134;-59
2021/12/06 06:03:07;;;;;;;118.80;28.60;;;;;;;4.98;78.09;101531.72;4902127;28;20379;-59
2021/12/06 06:05:35;;;;;;;117.22;29.33;;;;;;;5.12;78.16;101522.03;4894579;28;20385;-59
2021/12/06 06:08:00;;;;;;;109.45;28.60;;;;;;;5.09;77.63;101530.50;4898058;28;20046;-59
2021/12/06 06:10:26;;;;;;;106.22;27.65;;;;;;;5.21;77.66;101531.06;4899405;29;20059;-59
2021/12/06 06:12:51;;;;;;;130.00;29.08;;;;;;;5.03;77.86;101531.94;4902561;29;20155;-59
2021/12/06 06:15:17;;;;;;;119.15;29.05;;;;;;;5.09;77.87;101539.97;4901532;29;20540;-59
2021/12/06 06:17:44;;;;;;;107.97;28.45;;;;;;;5.14;77.96;101536.75;4911470;28;21009;-60
2021/12/06 06:20:20;;;;;;;125.55;29.08;;;;;;;5.19;77.82;101536.97;4901157;28;20051;-59
2021/12/06 06:22:46;;;;;;;97.30;27.83;;;;;;;5.28;77.48;101538.28;4901139;29;20496;-60
2021/12/06 06:25:11;;;;;;;122.25;29.33;;;;;;;5.31;77.48;101533.25;4898617;29;20036;-58
2021/12/06 06:27:37;;;;;;;108.75;28.92;;;;;;;5.32;77.60;101534.13;4895857;28;20354;-59
2021/12/06 06:30:04;;;;;;;150.25;30.02;;;;;;;5.26;77.74;101536.44;4902534;29;20107;-59
2021/12/06 06:32:29;;;;;;;109.13;27.98;;;;;;;5.32;77.37;101540.19;4899869;28;20051;-59
2021/12/06 06:34:54;;;;;;;114.82;28.77;;;;;;;5.36;77.41;101546.41;4910768;28;20526;-60
2021/12/06 06:37:20;;;;;;;105.75;28.67;;;;;;;5.39;77.50;101546.53;4894072;29;20043;-59
2021/12/06 06:39:46;;;;;;;110.35;28.52;;;;;;;5.41;77.41;101547.47;4893086;29;20043;-60
2021/12/06 06:42:11;;;;;;;106.30;28.48;;;;;;;5.43;77.69;101555.31;4902602;29;20043;-60
2021/12/06 06:44:37;;;;;;;170.30;29.05;;;;;;;5.46;77.26;101552.84;4903247;28;20462;-59
2021/12/06 06:47:02;;;;;;;112.63;29.35;;;;;;;5.45;77.43;101553.66;4897164;29;20428;-60
2021/12/06 06:49:30;;;;;;;115.90;28.98;;;;;;;5.47;77.29;101558.09;4896625;29;20563;-58
2021/12/06 06:51:57;;;;;;;136.68;28.55;;;;;;;5.46;77.46;101566.66;4898960;28;20139;-61
2021/12/06 06:54:23;;;;;;;155.70;29.30;;;;;;;5.45;77.46;101564.88;4899434;29;20535;-59
2021/12/06 06:56:48;;;;;;;200.27;31.48;;;;;;;5.43;77.44;101565.66;4899167;29;20130;-59
2021/12/06 06:59:13;;;;;;;279.15;28.70;;;;;;;5.40;77.66;101556.03;4904760;28;20498;-59
2021/12/06 07:01:42;;;;;;;239.70;27.00;;;;;;;5.39;77.55;101556.84;4884150;28;20791;-58
2021/12/06 07:04:08;;;;;;;240.82;27.52;;;;;;;5.38;77.65;101551.59;4913864;28;20154;-59
2021/12/06 07:06:33;;;;;;;217.25;27.20;;;;;;;5.39;77.28;101551.69;4897116;28;20162;-59
2021/12/06 07:08:59;;;;;;;182.77;26.35;;;;;;;5.34;77.40;101553.19;4899767;29;20044;-59
2021/12/06 07:11:26;;;;;;;124.60;25.55;;;;;;;5.32;77.70;101541.88;4893513;28;20044;-61
2021/12/06 07:13:52;;;;;;;179.85;28.23;;;;;;;5.36;77.37;101542.91;4892060;29;20042;-58
2021/12/06 07:16:18;;;;;;;169.43;27.75;;;;;;;5.36;77.25;101528.28;4901253;28;20049;-59
2021/12/06 07:18:43;;;;;;;115.43;27.13;;;;;;;5.45;77.39;101526.09;4901036;29;20535;-58
2021/12/06 07:21:09;;;;;;;108.28;25.13;;;;;;;5.49;77.33;101524.56;4898603;28;20123;-60
2021/12/06 07:23:38;;;;;;;102.00;25.55;;;;;;;5.51;77.20;101528.06;4893885;28;20040;-59
2021/12/06 07:26:06;;;;;;;123.55;27.10;;;;;;;5.49;77.44;101524.56;4899636;29;20490;-59
2021/12/06 07:28:31;;;;;;;106.97;27.55;;;;;;;5.50;77.66;101514.25;4898348;29;20040;-61
2021/12/06 07:30:58;;;;;;;107.40;27.83;;;;;;;5.52;77.49;101517.81;4897087;29;20046;-59
2021/12/06 07:33:25;;;;;;;125.82;28.95;;;;;;;5.52;77.39;101514.34;4897143;29;20101;-59
2021/12/06 07:35:51;;;;;;;116.78;29.10;;;;;;;5.56;77.41;101517.09;4900878;29;20097;-60
2021/12/06 07:38:16;;;;;;;101.65;28.25;;;;;;;5.60;77.33;101528.50;4892443;28;20555;-59
2021/12/06 07:40:41;;;;;;;109.00;28.25;;;;;;;5.63;77.78;101526.03;4898078;29;20054;-59
2021/12/06 07:43:07;;;;;;;111.75;28.70;;;;;;;5.66;77.20;101527.06;4897658;29;20483;-59
2021/12/06 07:45:32;;;;;;;109.07;29.38;;;;;;;5.62;77.57;101522.53;4893979;29;20330;-59
2021/12/06 07:47:58;;;;;;;112.10;29.63;;;;;;;5.62;77.39;101524.25;4889308;29;20044;-60
2021/12/06 07:50:23;;;;;;;106.20;29.13;;;;;;;5.68;77.33;101529.69;4889283;29;20491;-59
2021/12/06 07:52:51;;;;;;;105.60;30.23;;;;;;;5.66;77.42;101527.06;4900485;29;20043;-58
2021/12/06 07:55:19;;;;;;;120.63;30.35;;;;;;;5.69;77.48;101524.59;4897051;28;20047;-58
2021/12/06 07:57:45;;;;;;;102.57;29.85;;;;;;;5.75;76.99;101515.31;4912580;28;20413;-59
2021/12/06 08:00:15;;;;;;;113.90;30.05;;;;;;;5.76;77.36;101510.22;4898818;29;20051;-59
2021/12/06 08:02:40;;;;;;;108.43;31.35;;;;;;;5.85;77.18;101522.66;4899296;29;20043;-59
2021/12/06 08:07:50;;;;;;;116.95;29.70;;;;;;;5.73;77.10;101533.38;4897585;29;20206;-59
2021/12/06 08:10:16;;;;;;;92.93;27.42;;;;;;;5.78;77.19;101536.16;4883475;29;20188;-59
2021/12/06 08:12:41;;;;;;;99.25;28.48;;;;;;;5.76;77.00;101542.97;4887721;29;20154;-60
2021/12/06 08:15:08;;;;;;;95.32;27.85;;;;;;;5.77;77.00;101552.50;4897131;29;20056;-59
2021/12/06 08:17:33;;;;;;;104.38;29.60;;;;;;;5.73;77.15;101554.94;4883372;29;20066;-59
2021/12/06 08:19:59;;;;;;;94.25;28.60;;;;;;;5.75;77.26;101560.19;4899109;28;20431;-58
2021/12/06 08:22:24;;;;;;;98.30;28.30;;;;;;;5.77;76.98;101563.72;4897812;29;20130;-60
2021/12/06 08:24:49;;;;;;;91.78;27.58;;;;;;;5.79;77.35;101558.63;4898814;29;20534;-59
2021/12/06 08:27:15;;;;;;;98.38;27.08;;;;;;;5.79;77.07;101567.28;4900929;29;20043;-59
2021/12/06 08:29:40;;;;;;;91.03;28.58;;;;;;;5.76;76.77;101558.47;4883465;29;20407;-60
2021/12/06 08:32:07;;;;;;;94.95;28.15;;;;;;;5.72;77.39;101560.06;4897604;29;20090;-58
2021/12/06 08:34:33;;;;;;;93.80;27.85;;;;;;;5.76;76.96;101558.47;4894444;29;20054;-56
2021/12/06 08:36:58;;;;;;;100.05;27.90;;;;;;;5.65;76.98;101553.75;4899125;29;20399;-59
2021/12/06 08:39:24;;;;;;;100.35;28.17;;;;;;;5.66;77.11;101555.50;4892174;29;20042;-59
2021/12/06 08:41:50;;;;;;;104.10;28.45;;;;;;;5.65;77.15;101547.69;4896134;29;20146;-57
2021/12/06 08:44:15;;;;;;;94.32;27.92;;;;;;;5.72;77.09;101550.59;4896492;29;20128;-58
2021/12/06 08:46:40;;;;;;;99.10;27.80;;;;;;;5.70;77.06;101551.34;4898326;29;20056;-61
2021/12/06 08:49:08;;;;;;;94.35;29.13;;;;;;;5.76;77.17;101551.59;4898392;28;20062;-57
2021/12/06 08:51:46;;;;;;;99.82;29.23;;;;;;;5.81;76.78;101552.69;4894482;28;20040;-58
2021/12/06 08:54:14;;;;;;;97.32;29.30;;;;;;;5.86;76.81;101547.69;4897927;28;20040;-57
2021/12/06 08:56:40;;;;;;;107.30;30.77;;;;;;;5.72;77.47;101536.78;4889501;29;20067;-58
2021/12/06 08:59:06;;;;;;;105.72;30.25;;;;;;;5.62;77.53;101530.31;4913463;28;20561;-57
2021/12/06 09:01:32;;;;;;;103.35;30.50;;;;;;;5.72;77.35;101531.59;4890575;29;20771;-58
2021/12/06 09:03:58;;;;;;;117.25;32.03;;;;;;;5.79;77.09;101528.47;4900261;29;20044;-57
2021/12/06 09:06:24;;;;;;;122.95;32.70;;;;;;;5.82;77.05;101531.19;4895884;28;20048;-59
2021/12/06 09:08:49;;;;;;;111.97;31.05;;;;;;;5.93;77.01;101531.66;4894430;29;20431;-58
2021/12/06 09:11:15;;;;;;;113.82;31.02;;;;;;;5.97;76.96;101526.69;4896956;29;20046;-59
2021/12/06 09:13:41;;;;;;;108.78;31.17;;;;;;;6.06;76.75;101524.47;4893993;28;20253;-57
2021/12/06 09:16:08;;;;;;;106.55;31.10;;;;;;;6.02;76.75;101519.13;4893291;28;20047;-59
2021/12/06 09:18:37;;;;;;;121.25;32.67;;;;;;;5.97;77.09;101511.16;4894757;29;20089;-59
2021/12/06 09:21:05;;;;;;;107.88;30.95;;;;;;;6.04;76.91;101507.09;4900847;29;20079;-59
2021/12/06 09:23:31;;;;;;;105.75;30.70;;;;;;;6.12;76.94;101516.09;4903918;28;20050;-58
2021/12/06 09:25:56;;;;;;;110.35;32.10;;;;;;;6.24;76.85;101516.59;4898306;29;20047;-57
2021/12/06 09:28:22;;;;;;;107.72;30.88;;;;;;;6.28;76.41;101533.16;4894479;29;20044;-58
2021/12/06 09:30:48;;;;;;;112.68;31.38;;;;;;;6.20;76.60;101542.28;4902811;29;20048;-58
2021/12/06 09:33:16;;;;;;;100.07;30.65;;;;;;;6.23;75.97;101553.66;4902294;29;20059;-58
2021/12/06 09:35:44;;;;;;;106.22;30.73;;;;;;;6.31;75.98;101552.28;4888697;28;20636;-59
2021/12/06 09:38:11;;;;;;;99.55;30.80;;;;;;;6.30;75.95;101550.50;4895694;28;20052;-57
2021/12/06 09:40:40;;;;;;;94.25;29.35;;;;;;;6.32;75.93;101547.97;4896455;28;20534;-58
2021/12/06 09:43:07;;;;;;;94.82;30.40;;;;;;;6.27;75.81;101544.31;4899001;29;20055;-56
2021/12/06 09:45:33;;;;;;;100.18;30.67;;;;;;;6.28;76.18;101538.31;4882320;28;20059;-56
2021/12/06 09:48:01;;;;;;;91.38;29.90;;;;;;;6.34;75.70;101536.84;4895084;29;20465;-57
2021/12/06 09:50:50;;;;;;;88.20;28.75;;;;;;;6.38;75.69;101543.06;4897424;29;20039;-59
2021/12/06 09:53:19;;;;;;;89.20;27.33;;;;;;;6.41;75.84;101549.22;4899202;29;20590;-58
2021/12/06 09:55:47;;;;;;;88.25;29.02;;;;;;;6.53;75.57;101548.84;4890883;29;22248;-61
2021/12/06 09:58:12;;;;;;;91.22;28.85;;;;;;;6.56;75.45;101546.38;4899588;28;20526;-57
2021/12/06 10:00:42;;;;;;;79.47;27.52;;;;;;;6.53;74.83;101536.78;4900947;29;20106;-56
2021/12/06 10:03:10;;;;;;;84.05;27.92;;;;;;;6.60;74.71;101545.69;4913387;28;20054;-56
2021/12/06 10:05:36;;;;;;;78.65;25.50;;;;;;;6.69;74.15;101537.41;4892545;29;20094;-57
2021/12/06 10:08:02;;;;;;;80.72;25.90;;;;;;;6.72;74.36;101530.63;4907206;29;20158;-59
2021/12/06 10:10:29;;;;;;;73.05;25.42;;;;;;;6.66;74.37;101521.72;4914107;28;20048;-58
2021/12/06 10:12:55;;;;;;;65.63;23.58;;;;;;;6.71;73.52;101523.66;4918128;28;20110;-58
2021/12/06 10:15:25;;;;;;;69.30;23.75;;;;;;;6.81;73.12;101520.63;4897262;29;20055;-57
2021/12/06 10:17:51;;;;;;;60.88;22.88;;;;;;;6.78;72.21;101515.31;4901079;29;20087;-58
2021/12/06 10:20:17;;;;;;;62.67;22.48;;;;;;;6.88;72.45;101501.00;4901539;29;20040;-58
2021/12/06 10:22:42;;;;;;;61.17;22.50;;;;;;;6.89;71.97;101493.25;4901525;29;20111;-58
2021/12/06 10:25:08;;;;;;;64.38;23.00;;;;;;;6.85;72.29;101477.56;4897866;28;20040;-58
2021/12/06 10:27:33;;;;;;;63.50;22.35;;;;;;;6.88;72.27;101459.53;4891109;29;20059;-57
2021/12/06 10:30:03;;;;;;;71.38;24.80;;;;;;;6.55;72.07;101461.72;4899434;28;20209;-57
2021/12/06 10:32:32;;;;;;;68.97;23.65;;;;;;;6.70;72.34;101456.25;4900683;29;20051;-58
2021/12/06 10:35:05;;;;;;;74.05;24.65;;;;;;;6.69;73.23;101460.56;4896379;29;20052;-57
2021/12/06 10:37:33;;;;;;;75.70;24.92;;;;;;;6.73;72.73;101452.06;4891957;28;20048;-58
2021/12/06 10:40:00;;;;;;;73.68;24.27;;;;;;;6.76;73.10;101449.59;4900573;29;20040;-59
2021/12/06 10:42:36;;;;;;;76.35;24.42;;;;;;;6.78;72.93;101434.97;4890999;29;20044;-58
2021/12/06 10:45:09;;;;;;;71.93;24.23;;;;;;;6.87;73.04;101440.50;4912814;28;20108;-57
2021/12/06 10:47:35;;;;;;;71.63;23.63;;;;;;;6.77;72.68;101428.00;4887559;29;20040;-57
2021/12/06 10:50:07;;;;;;;69.93;23.67;;;;;;;6.84;71.95;101432.59;4900295;28;21217;-57
2021/12/06 10:52:33;;;;;;;65.20;22.70;;;;;;;6.73;71.76;101420.97;4901722;29;20110;-56
2021/12/06 10:54:58;;;;;;;68.53;22.95;;;;;;;6.71;71.56;101408.78;4905124;29;20067;-57
2021/12/06 10:57:51;;;;;;;66.20;22.42;;;;;;;6.64;72.67;101406.78;4889114;29;20043;-58
2021/12/06 11:00:45;;;;;;;65.97;22.35;;;;;;;6.55;71.53;101404.72;4900078;28;20048;-55
2021/12/06 11:03:36;;;;;;;63.22;21.70;;;;;;;6.54;71.82;101408.13;4900785;28;20036;-58
2021/12/06 11:06:08;;;;;;;61.13;21.15;;;;;;;6.68;71.15;101406.97;4896427;28;21206;-56
2021/12/06 11:08:35;;;;;;;60.38;21.55;;;;;;;6.42;71.58;101402.50;4892575;29;20024;-56
2021/12/06 11:11:05;;;;;;;60.65;21.55;;;;;;;6.42;71.11;101387.84;4890979;29;20048;-57
2021/12/06 11:13:34;;;;;;;65.32;23.02;;;;;;;6.27;71.31;101392.44;4894562;29;20487;-57
2021/12/06 11:16:07;;;;;;;69.10;23.55;;;;;;;6.36;71.50;101378.94;4912064;28;20056;-55
2021/12/06 11:18:39;;;;;;;62.35;23.52;;;;;;;6.46;71.39;101381.09;4900216;29;20055;-56
2021/12/06 11:21:13;;;;;;;68.90;24.35;;;;;;;6.38;71.59;101377.31;4895411;29;20059;-57
2021/12/06 11:23:58;;;;;;;64.82;25.08;;;;;;;6.38;71.69;101360.06;4891511;28;21016;-57
2021/12/06 11:26:24;;;;;;;74.47;26.30;;;;;;;6.48;71.63;101357.00;4913146;28;20063;-57